createdAt,value
2017-08-25T00:00:16.189Z,0
2017-08-25T00:01:30.822Z,0
2017-08-25T00:02:15.937Z,0
2017-08-25T00:03:16.260Z,0
2017-08-25T00:04:16.295Z,0
2017-08-25T00:05:30.906Z,0
2017-08-25T00:06:16.361Z,0
2017-08-25T00:07:16.365Z,0
2017-08-25T00:08:16.389Z,0
2017-08-25T00:09:16.412Z,0
2017-08-25T00:10:15.808Z,0
2017-08-25T00:11:16.469Z,0
2017-08-25T00:12:30.774Z,0
2017-08-25T00:13:31.120Z,0
2017-08-25T00:14:16.534Z,0
2017-08-25T00:15:16.560Z,0
2017-08-25T00:17:16.608Z,0
2017-08-25T00:18:31.242Z,0
2017-08-25T00:19:16.355Z,0
2017-08-25T00:20:15.741Z,0
2017-08-25T00:21:30.984Z,0
2017-08-25T00:22:16.748Z,0
2017-08-25T00:23:16.762Z,0
2017-08-25T00:24:16.776Z,0
2017-08-25T00:25:16.155Z,0
2017-08-25T00:26:16.532Z,0
2017-08-25T00:27:16.859Z,0
2017-08-25T00:28:31.157Z,0
2017-08-25T00:30:16.619Z,0
2017-08-25T00:31:16.625Z,0
2017-08-25T00:32:16.979Z,0
2017-08-25T00:33:17.001Z,0
2017-08-25T00:35:31.640Z,0
2017-08-25T00:36:16.428Z,0
2017-08-25T00:37:31.712Z,0
2017-08-25T00:38:31.708Z,0
2017-08-25T00:39:17.157Z,0
2017-08-25T00:40:17.145Z,0
2017-08-25T00:41:17.189Z,0
2017-08-25T00:42:16.900Z,0
2017-08-25T00:43:16.935Z,0
2017-08-25T00:44:31.870Z,0
2017-08-25T00:45:17.273Z,0
2017-08-25T00:46:17.012Z,0
2017-08-25T00:47:17.012Z,0
2017-08-25T00:48:17.387Z,0
2017-08-25T00:49:17.375Z,0
2017-08-25T00:50:17.104Z,0
2017-08-25T00:51:17.490Z,0
2017-08-25T00:52:17.137Z,0
2017-08-25T00:53:17.475Z,0
2017-08-25T00:54:17.175Z,0
2017-08-25T00:55:17.537Z,0
2017-08-25T00:56:17.289Z,0
2017-08-25T00:57:17.577Z,0
2017-08-25T00:58:17.599Z,0
2017-08-25T00:59:31.900Z,0
2017-08-25T01:00:17.346Z,0
2017-08-25T01:01:17.675Z,0
2017-08-25T01:02:17.701Z,0
2017-08-25T01:03:17.737Z,0
2017-08-25T01:04:17.746Z,0
2017-08-25T01:05:17.767Z,0
2017-08-25T01:06:17.815Z,0
2017-08-25T01:07:31.793Z,0
2017-08-25T01:08:17.513Z,0
2017-08-25T01:09:17.556Z,0
2017-08-25T01:10:17.580Z,0
2017-08-25T01:11:17.906Z,0
2017-08-25T01:12:17.614Z,0
2017-08-25T01:13:17.970Z,0
2017-08-25T01:14:17.663Z,0
2017-08-25T01:15:18.002Z,0
2017-08-25T01:16:17.730Z,0
2017-08-25T01:17:18.055Z,0
2017-08-25T01:18:18.090Z,0
2017-08-25T01:19:32.694Z,0
2017-08-25T01:20:18.141Z,0
2017-08-25T01:22:18.166Z,0
2017-08-25T01:23:18.219Z,0
2017-08-25T01:24:17.924Z,0
2017-08-25T01:25:32.839Z,0
2017-08-25T01:26:18.309Z,0
2017-08-25T01:27:18.306Z,0
2017-08-25T01:29:18.346Z,0
2017-08-25T01:30:18.372Z,0
2017-08-25T01:31:33.003Z,0
2017-08-25T01:33:18.464Z,0
2017-08-25T01:35:18.530Z,0
2017-08-25T01:36:33.108Z,0
2017-08-25T01:37:18.219Z,0
2017-08-25T01:38:32.855Z,0
2017-08-25T01:39:18.570Z,0
2017-08-25T01:40:18.621Z,0
2017-08-25T01:41:18.634Z,0
2017-08-25T01:42:18.653Z,0
2017-08-25T01:43:18.667Z,0
2017-08-25T01:44:18.383Z,0
2017-08-25T01:45:18.752Z,0
2017-08-25T01:46:18.757Z,0
2017-08-25T01:47:47.669Z,0
2017-08-25T01:48:18.805Z,0
2017-08-25T01:49:18.522Z,0
2017-08-25T01:50:18.867Z,0
2017-08-25T01:51:33.500Z,0
2017-08-25T01:52:18.593Z,0
2017-08-25T01:53:18.927Z,0
2017-08-25T01:54:18.925Z,0
2017-08-25T01:55:18.990Z,0
2017-08-25T01:56:18.999Z,0
2017-08-25T01:57:18.407Z,0
2017-08-25T01:58:33.644Z,0
2017-08-25T01:59:19.090Z,0
2017-08-25T02:00:18.776Z,0
2017-08-25T02:01:18.780Z,0
2017-08-25T02:02:19.158Z,0
2017-08-25T02:03:33.448Z,0
2017-08-25T02:04:19.198Z,0
2017-08-25T02:05:19.211Z,0
2017-08-25T02:06:33.534Z,0
2017-08-25T02:07:33.836Z,0
2017-08-25T02:08:18.972Z,0
2017-08-25T02:09:33.915Z,0
2017-08-25T02:10:19.342Z,0
2017-08-25T02:11:19.376Z,0
2017-08-25T02:12:19.350Z,0
2017-08-25T02:13:19.404Z,0
2017-08-25T02:14:19.422Z,0
2017-08-25T02:15:19.152Z,0
2017-08-25T02:16:19.476Z,0
2017-08-25T02:17:34.107Z,0
2017-08-25T02:18:19.215Z,0
2017-08-25T02:19:33.831Z,0
2017-08-25T02:20:33.866Z,0
2017-08-25T02:21:19.621Z,0
2017-08-25T02:22:19.601Z,0
2017-08-25T02:23:19.657Z,0
2017-08-25T02:24:19.671Z,0
2017-08-25T02:25:19.689Z,0
2017-08-25T02:26:19.390Z,0
2017-08-25T02:27:18.790Z,0
2017-08-25T02:28:19.141Z,0
2017-08-25T02:29:19.474Z,0
2017-08-25T02:30:19.797Z,0
2017-08-25T02:31:19.511Z,0
2017-08-25T02:32:34.474Z,0
2017-08-25T02:33:19.875Z,0
2017-08-25T02:34:34.528Z,0
2017-08-25T02:35:34.204Z,0
2017-08-25T02:36:19.949Z,0
2017-08-25T02:37:19.978Z,0
2017-08-25T02:38:19.986Z,0
2017-08-25T02:39:20.038Z,0
2017-08-25T02:40:19.752Z,0
2017-08-25T02:41:20.092Z,0
2017-08-25T02:42:20.079Z,0
2017-08-25T02:43:34.739Z,0
2017-08-25T02:44:34.749Z,0
2017-08-25T02:45:20.169Z,0
2017-08-25T02:46:20.192Z,0
2017-08-25T02:47:19.587Z,0
2017-08-25T02:48:34.198Z,0
2017-08-25T02:49:20.284Z,0
2017-08-25T02:50:34.875Z,0
2017-08-25T02:51:20.019Z,0
2017-08-25T02:52:20.028Z,0
2017-08-25T02:53:20.376Z,0
2017-08-25T02:54:20.067Z,0
2017-08-25T02:55:20.085Z,0
2017-08-25T02:56:19.806Z,0
2017-08-25T02:57:20.145Z,0
2017-08-25T02:58:20.466Z,0
2017-08-25T02:59:20.503Z,0
2017-08-25T03:00:20.532Z,0
2017-08-25T03:01:20.564Z,0
2017-08-25T03:02:20.240Z,0
2017-08-25T03:03:35.205Z,0
2017-08-25T03:04:35.233Z,0
2017-08-25T03:05:20.634Z,0
2017-08-25T03:06:49.873Z,0
2017-08-25T03:07:20.678Z,0
2017-08-25T03:08:35.342Z,0
2017-08-25T03:09:20.745Z,0
2017-08-25T03:10:35.374Z,0
2017-08-25T03:11:20.789Z,0
2017-08-25T03:12:20.563Z,0
2017-08-25T03:13:35.111Z,0
2017-08-25T03:14:35.723Z,0
2017-08-25T03:15:20.239Z,0
2017-08-25T03:16:35.510Z,0
2017-08-25T03:17:20.624Z,0
2017-08-25T03:18:20.641Z,0
2017-08-25T03:19:20.669Z,0
2017-08-25T03:21:20.713Z,0
2017-08-25T03:22:35.335Z,0
2017-08-25T03:23:20.770Z,0
2017-08-25T03:24:35.704Z,0
2017-08-25T03:25:35.402Z,0
2017-08-25T03:26:20.865Z,0
2017-08-25T03:27:20.845Z,0
2017-08-25T03:28:35.177Z,0
2017-08-25T03:29:21.195Z,0
2017-08-25T03:30:35.548Z,0
2017-08-25T03:31:21.261Z,0
2017-08-25T03:32:35.884Z,0
2017-08-25T03:33:21.313Z,0
2017-08-25T03:34:21.336Z,0
2017-08-25T03:35:35.969Z,0
2017-08-25T03:36:21.383Z,0
2017-08-25T03:37:21.097Z,0
2017-08-25T03:39:21.449Z,0
2017-08-25T03:41:21.518Z,0
2017-08-25T03:42:21.516Z,0
2017-08-25T03:43:36.168Z,0
2017-08-25T03:44:35.863Z,0
2017-08-25T03:45:21.591Z,0
2017-08-25T03:46:21.616Z,0
2017-08-25T03:47:21.640Z,0
2017-08-25T03:48:36.275Z,0
2017-08-25T03:49:21.700Z,0
2017-08-25T03:50:21.730Z,0
2017-08-25T03:51:21.741Z,0
2017-08-25T03:52:21.777Z,0
2017-08-25T03:53:21.765Z,0
2017-08-25T03:54:36.085Z,0
2017-08-25T03:55:21.834Z,0
2017-08-25T03:56:35.821Z,0
2017-08-25T03:57:21.900Z,0
2017-08-25T03:59:21.927Z,0
2017-08-25T04:00:36.546Z,0
2017-08-25T04:01:21.958Z,0
2017-08-25T04:04:36.643Z,0
2017-08-25T04:05:36.679Z,0
2017-08-25T04:06:36.689Z,0
2017-08-25T04:07:22.128Z,0
2017-08-25T04:08:21.505Z,0
2017-08-25T04:09:36.756Z,0
2017-08-25T04:10:22.195Z,0
2017-08-25T04:11:22.194Z,0
2017-08-25T04:12:36.183Z,0
2017-08-25T04:13:22.268Z,0
2017-08-25T04:14:22.275Z,0
2017-08-25T04:15:36.593Z,0
2017-08-25T04:16:21.685Z,5
2017-08-25T04:17:36.981Z,5
2017-08-25T04:18:22.367Z,5
2017-08-25T04:19:36.691Z,5
2017-08-25T04:20:21.812Z,5
2017-08-25T04:21:22.131Z,5
2017-08-25T04:23:22.501Z,5
2017-08-25T04:24:22.201Z,5
2017-08-25T04:25:22.543Z,5
2017-08-25T04:26:37.152Z,10
2017-08-25T04:27:22.578Z,10
2017-08-25T04:28:22.308Z,10
2017-08-25T04:29:22.649Z,10
2017-08-25T04:30:36.937Z,10
2017-08-25T04:31:22.689Z,10
2017-08-25T04:32:22.696Z,10
2017-08-25T04:33:22.730Z,10
2017-08-25T04:34:22.753Z,10
2017-08-25T04:36:22.780Z,10
2017-08-25T04:37:22.814Z,10
2017-08-25T04:38:22.540Z,10
2017-08-25T04:39:22.868Z,10
2017-08-25T04:41:37.526Z,10
2017-08-25T04:42:22.608Z,10
2017-08-25T04:43:22.343Z,10
2017-08-25T04:44:22.348Z,10
2017-08-25T04:45:23.020Z,10
2017-08-25T04:46:22.731Z,10
2017-08-25T04:47:23.062Z,10
2017-08-25T04:48:23.076Z,10
2017-08-25T04:49:23.117Z,10
2017-08-25T04:50:23.135Z,10
2017-08-25T04:51:23.155Z,15
2017-08-25T04:52:37.794Z,15
2017-08-25T04:53:23.189Z,15
2017-08-25T04:54:23.246Z,15
2017-08-25T04:55:23.235Z,15
2017-08-25T04:56:23.291Z,15
2017-08-25T04:57:37.886Z,20
2017-08-25T04:58:23.319Z,20
2017-08-25T04:59:23.372Z,20
2017-08-25T05:00:23.356Z,20
2017-08-25T05:01:23.397Z,20
2017-08-25T05:02:23.096Z,20
2017-08-25T05:03:23.419Z,20
2017-08-25T05:04:23.466Z,25
2017-08-25T05:05:37.763Z,25
2017-08-25T05:06:23.508Z,25
2017-08-25T05:07:23.524Z,25
2017-08-25T05:08:37.853Z,25
2017-08-25T05:09:37.877Z,30
2017-08-25T05:10:23.275Z,30
2017-08-25T05:11:23.638Z,30
2017-08-25T05:12:23.620Z,35
2017-08-25T05:13:38.281Z,40
2017-08-25T05:14:23.695Z,40
2017-08-25T05:15:23.425Z,40
2017-08-25T05:16:38.360Z,40
2017-08-25T05:17:23.437Z,40
2017-08-25T05:18:38.393Z,45
2017-08-25T05:19:23.820Z,45
2017-08-25T05:20:23.847Z,45
2017-08-25T05:21:23.540Z,45
2017-08-25T05:22:23.584Z,45
2017-08-25T05:23:23.900Z,40
2017-08-25T05:24:38.538Z,40
2017-08-25T05:25:23.974Z,40
2017-08-25T05:26:23.657Z,40
2017-08-25T05:27:24.004Z,40
2017-08-25T05:28:24.025Z,40
2017-08-25T05:29:38.652Z,45
2017-08-25T05:30:24.096Z,45
2017-08-25T05:31:38.689Z,45
2017-08-25T05:32:24.146Z,45
2017-08-25T05:33:38.772Z,45
2017-08-25T05:34:38.455Z,45
2017-08-25T05:35:23.891Z,45
2017-08-25T05:36:24.209Z,50
2017-08-25T05:37:24.246Z,50
2017-08-25T05:38:24.268Z,55
2017-08-25T05:39:23.666Z,60
2017-08-25T05:40:23.692Z,65
2017-08-25T05:41:24.050Z,70
2017-08-25T05:42:23.732Z,70
2017-08-25T05:43:38.662Z,80
2017-08-25T05:44:39.039Z,75
2017-08-25T05:45:24.120Z,80
2017-08-25T05:46:38.755Z,80
2017-08-25T05:47:23.848Z,85
2017-08-25T05:48:24.210Z,95
2017-08-25T05:49:24.226Z,105
2017-08-25T05:50:38.836Z,120
2017-08-25T05:51:24.276Z,120
2017-08-25T05:52:39.210Z,135
2017-08-25T05:53:24.326Z,145
2017-08-25T05:54:24.643Z,150
2017-08-25T05:55:24.694Z,245
2017-08-25T05:57:24.742Z,170
2017-08-25T05:58:24.442Z,180
2017-08-25T06:00:24.785Z,255
2017-08-25T06:01:24.847Z,200
2017-08-25T06:02:24.854Z,235
2017-08-25T06:03:24.896Z,215
2017-08-25T06:04:24.882Z,225
2017-08-25T06:05:24.935Z,340
2017-08-25T06:07:24.983Z,220
2017-08-25T06:08:24.673Z,250
2017-08-25T06:09:25.052Z,230
2017-08-25T06:10:25.067Z,245
2017-08-25T06:11:24.748Z,370
2017-08-25T06:12:25.107Z,255
2017-08-25T06:13:25.137Z,450
2017-08-25T06:14:25.168Z,250
2017-08-25T06:15:25.168Z,250
2017-08-25T06:16:39.824Z,230
2017-08-25T06:17:39.839Z,415
2017-08-25T06:18:39.222Z,200
2017-08-25T06:19:39.895Z,180
2017-08-25T06:20:24.993Z,180
2017-08-25T06:21:25.346Z,180
2017-08-25T06:22:25.347Z,190
2017-08-25T06:23:25.405Z,235
2017-08-25T06:24:25.086Z,215
2017-08-25T06:25:25.106Z,240
2017-08-25T06:26:40.071Z,260
2017-08-25T06:27:25.179Z,265
2017-08-25T06:28:25.514Z,260
2017-08-25T06:29:40.152Z,280
2017-08-25T06:30:25.553Z,305
2017-08-25T06:31:25.633Z,370
2017-08-25T06:32:40.201Z,310
2017-08-25T06:33:40.254Z,355
2017-08-25T06:34:25.363Z,300
2017-08-25T06:35:25.703Z,245
2017-08-25T06:36:25.784Z,245
2017-08-25T06:37:25.765Z,265
2017-08-25T06:38:25.453Z,285
2017-08-25T06:40:25.822Z,305
2017-08-25T06:41:25.582Z,255
2017-08-25T06:42:25.583Z,200
2017-08-25T06:43:40.524Z,175
2017-08-25T06:44:25.943Z,165
2017-08-25T06:45:25.962Z,145
2017-08-25T06:46:25.677Z,145
2017-08-25T06:47:25.690Z,155
2017-08-25T06:48:54.930Z,150
2017-08-25T06:49:26.062Z,165
2017-08-25T06:50:26.115Z,175
2017-08-25T06:51:26.100Z,180
2017-08-25T06:52:25.830Z,185
2017-08-25T06:53:26.174Z,200
2017-08-25T06:54:26.220Z,195
2017-08-25T06:55:26.213Z,205
2017-08-25T06:56:26.258Z,415
2017-08-25T06:57:26.264Z,215
2017-08-25T06:58:26.318Z,205
2017-08-25T06:59:25.706Z,145
2017-08-25T07:00:26.381Z,145
2017-08-25T07:01:40.998Z,155
2017-08-25T07:02:25.796Z,165
2017-08-25T07:03:26.114Z,210
2017-08-25T07:04:55.342Z,525
2017-08-25T07:05:26.198Z,700
2017-08-25T07:06:26.519Z,570
2017-08-25T07:07:26.548Z,320
2017-08-25T07:08:26.571Z,305
2017-08-25T07:09:26.297Z,340
2017-08-25T07:10:26.004Z,375
2017-08-25T07:11:26.664Z,385
2017-08-25T07:12:26.381Z,360
2017-08-25T07:13:26.736Z,345
2017-08-25T07:14:26.760Z,270
2017-08-25T07:16:26.815Z,230
2017-08-25T07:17:26.837Z,235
2017-08-25T07:18:26.840Z,215
2017-08-25T07:19:40.856Z,215
2017-08-25T07:20:41.179Z,225
2017-08-25T07:21:26.922Z,240
2017-08-25T07:22:26.956Z,265
2017-08-25T07:25:27.043Z,395
2017-08-25T07:26:27.080Z,575
2017-08-25T07:27:27.080Z,500
2017-08-25T07:28:27.126Z,475
2017-08-25T07:29:27.153Z,405
2017-08-25T07:30:27.197Z,355
2017-08-25T07:31:27.202Z,340
2017-08-25T07:32:27.229Z,335
2017-08-25T07:33:27.254Z,315
2017-08-25T07:34:26.958Z,450
2017-08-25T07:35:27.337Z,540
2017-08-25T07:36:27.332Z,605
2017-08-25T07:37:27.391Z,625
2017-08-25T07:38:42.007Z,625
2017-08-25T07:39:27.434Z,650
2017-08-25T07:40:27.437Z,670
2017-08-25T07:41:27.477Z,705
2017-08-25T07:42:27.508Z,680
2017-08-25T07:43:27.560Z,750
2017-08-25T07:44:27.241Z,815
2017-08-25T07:45:41.894Z,775
2017-08-25T07:46:27.366Z,585
2017-08-25T07:48:27.368Z,555
2017-08-25T07:49:27.742Z,490
2017-08-25T07:50:27.733Z,515
2017-08-25T07:51:42.389Z,745
2017-08-25T07:52:27.495Z,765
2017-08-25T07:53:27.196Z,740
2017-08-25T07:55:27.929Z,740
2017-08-25T07:56:27.951Z,830
2017-08-25T07:57:27.656Z,825
2017-08-25T07:58:28.007Z,890
2017-08-25T07:59:28.043Z,890
2017-08-25T08:00:28.076Z,725
2017-08-25T08:01:27.774Z,690
2017-08-25T08:02:28.113Z,535
2017-08-25T08:03:28.152Z,585
2017-08-25T08:04:28.172Z,500
2017-08-25T08:05:42.830Z,665
2017-08-25T08:06:42.531Z,420
2017-08-25T08:07:42.570Z,720
2017-08-25T08:08:28.008Z,485
2017-08-25T08:09:28.353Z,695
2017-08-25T08:10:27.729Z,720
2017-08-25T08:11:28.113Z,670
2017-08-25T08:12:28.436Z,635
2017-08-25T08:13:28.162Z,645
2017-08-25T08:14:28.492Z,670
2017-08-25T08:15:28.559Z,580
2017-08-25T08:16:42.851Z,560
2017-08-25T08:17:43.202Z,585
2017-08-25T08:18:28.647Z,580
2017-08-25T08:19:43.267Z,620
2017-08-25T08:20:43.315Z,585
2017-08-25T08:21:28.399Z,485
2017-08-25T08:22:28.764Z,540
2017-08-25T08:23:43.386Z,355
2017-08-25T08:24:28.832Z,565
2017-08-25T08:25:28.864Z,415
2017-08-25T08:26:28.898Z,390
2017-08-25T08:27:43.532Z,380
2017-08-25T08:28:28.656Z,365
2017-08-25T08:29:28.669Z,310
2017-08-25T08:30:28.722Z,385
2017-08-25T08:31:28.723Z,430
2017-08-25T08:32:29.093Z,340
2017-08-25T08:33:28.793Z,310
2017-08-25T08:34:29.167Z,290
2017-08-25T08:35:29.194Z,285
2017-08-25T08:36:29.255Z,300
2017-08-25T08:38:29.294Z,275
2017-08-25T08:39:43.585Z,250
2017-08-25T08:40:29.032Z,240
2017-08-25T08:41:43.667Z,230
2017-08-25T08:43:29.438Z,230
2017-08-25T08:44:29.157Z,380
2017-08-25T08:45:29.187Z,270
2017-08-25T08:46:29.205Z,460
2017-08-25T08:47:29.577Z,495
2017-08-25T08:48:29.567Z,325
2017-08-25T08:49:29.642Z,285
2017-08-25T08:50:43.931Z,295
2017-08-25T08:51:29.691Z,445
2017-08-25T08:52:29.082Z,310
2017-08-25T08:53:29.428Z,280
2017-08-25T08:54:44.056Z,350
2017-08-25T08:55:29.178Z,380
2017-08-25T08:56:29.523Z,325
2017-08-25T08:57:29.763Z,340
2017-08-25T08:58:29.270Z,285
2017-08-25T08:59:29.916Z,260
2017-08-25T09:00:44.565Z,255
2017-08-25T09:01:29.973Z,230
2017-08-25T09:02:30.030Z,385
2017-08-25T09:03:30.049Z,195
2017-08-25T09:04:30.089Z,165
2017-08-25T09:05:30.100Z,170
2017-08-25T09:06:29.834Z,175
2017-08-25T09:07:30.183Z,205
2017-08-25T09:08:30.215Z,330
2017-08-25T09:09:30.227Z,240
2017-08-25T09:10:44.875Z,270
2017-08-25T09:11:30.282Z,305
2017-08-25T09:12:30.338Z,275
2017-08-25T09:13:30.350Z,270
2017-08-25T09:14:30.381Z,275
2017-08-25T09:15:30.405Z,270
2017-08-25T09:16:30.448Z,310
2017-08-25T09:17:30.446Z,365
2017-08-25T09:18:30.481Z,310
2017-08-25T09:19:30.528Z,270
2017-08-25T09:20:45.219Z,275
2017-08-25T09:21:30.279Z,270
2017-08-25T09:22:30.619Z,290
2017-08-25T09:23:30.320Z,265
2017-08-25T09:24:30.650Z,290
2017-08-25T09:25:30.715Z,315
2017-08-25T09:26:45.316Z,360
2017-08-25T09:27:30.461Z,325
2017-08-25T09:28:31.196Z,375
2017-08-25T09:29:30.821Z,370
2017-08-25T09:30:30.527Z,330
2017-08-25T09:31:30.580Z,350
2017-08-25T09:32:30.594Z,350
2017-08-25T09:33:30.946Z,350
2017-08-25T09:34:30.649Z,365
2017-08-25T09:36:45.634Z,360
2017-08-25T09:37:31.074Z,360
2017-08-25T09:38:31.121Z,360
2017-08-25T09:39:30.809Z,365
2017-08-25T09:41:31.187Z,360
2017-08-25T09:42:45.829Z,355
2017-08-25T09:43:31.294Z,225
2017-08-25T09:44:45.265Z,305
2017-08-25T09:45:31.316Z,340
2017-08-25T09:46:31.336Z,340
2017-08-25T09:48:46.004Z,245
2017-08-25T09:49:31.437Z,220
2017-08-25T09:50:31.461Z,305
2017-08-25T09:51:31.184Z,325
2017-08-25T09:52:46.144Z,330
2017-08-25T09:53:31.560Z,300
2017-08-25T09:54:46.200Z,340
2017-08-25T09:55:45.892Z,335
2017-08-25T09:56:31.638Z,235
2017-08-25T09:57:31.671Z,215
2017-08-25T09:58:46.316Z,205
2017-08-25T09:59:31.418Z,210
2017-08-25T10:00:31.785Z,335
2017-08-25T10:01:46.090Z,270
2017-08-25T10:02:31.517Z,210
2017-08-25T10:03:31.849Z,260
2017-08-25T10:04:46.508Z,225
2017-08-25T10:05:31.931Z,285
2017-08-25T10:06:31.934Z,305
2017-08-25T10:07:31.679Z,330
2017-08-25T10:08:32.015Z,325
2017-08-25T10:09:46.655Z,225
2017-08-25T10:10:32.078Z,265
2017-08-25T10:11:46.420Z,345
2017-08-25T10:12:32.131Z,355
2017-08-25T10:13:32.145Z,330
2017-08-25T10:15:32.232Z,355
2017-08-25T10:16:32.235Z,355
2017-08-25T10:17:32.285Z,355
2017-08-25T10:18:32.302Z,340
2017-08-25T10:20:32.370Z,350
2017-08-25T10:21:32.418Z,355
2017-08-25T10:22:32.125Z,280
2017-08-25T10:23:46.738Z,290
2017-08-25T10:25:32.517Z,250
2017-08-25T10:26:32.247Z,315
2017-08-25T10:27:47.185Z,325
2017-08-25T10:28:32.313Z,315
2017-08-25T10:29:46.941Z,255
2017-08-25T10:30:32.365Z,265
2017-08-25T10:31:32.722Z,210
2017-08-25T10:32:32.752Z,195
2017-08-25T10:33:32.735Z,180
2017-08-25T10:34:32.803Z,170
2017-08-25T10:35:32.806Z,160
2017-08-25T10:36:32.868Z,155
2017-08-25T10:37:47.168Z,145
2017-08-25T10:38:32.290Z,135
2017-08-25T10:39:47.226Z,115
2017-08-25T10:40:32.970Z,105
2017-08-25T10:41:33.025Z,95
2017-08-25T10:42:33.025Z,95
2017-08-25T10:43:32.760Z,95
2017-08-25T10:44:33.065Z,105
2017-08-25T10:45:32.815Z,120
2017-08-25T10:46:32.822Z,130
2017-08-25T10:47:47.791Z,155
2017-08-25T10:48:33.203Z,220
2017-08-25T10:49:32.933Z,220
2017-08-25T10:51:33.275Z,225
2017-08-25T10:52:32.073Z,265
2017-08-25T10:53:33.042Z,285
2017-08-25T10:55:32.784Z,205
2017-08-25T10:56:48.047Z,225
2017-08-25T10:57:33.457Z,225
2017-08-25T10:58:33.169Z,230
2017-08-25T10:59:33.203Z,215
2017-08-25T11:00:33.568Z,205
2017-08-25T11:01:48.172Z,200
2017-08-25T11:02:32.981Z,200
2017-08-25T11:03:33.620Z,210
2017-08-25T11:04:33.674Z,230
2017-08-25T11:05:33.373Z,265
2017-08-25T11:06:33.735Z,280
2017-08-25T11:07:33.452Z,285
2017-08-25T11:08:33.476Z,275
2017-08-25T11:09:48.094Z,250
2017-08-25T11:10:33.813Z,230
2017-08-25T11:11:33.884Z,240
2017-08-25T11:12:33.267Z,230
2017-08-25T11:13:33.635Z,240
2017-08-25T11:14:48.233Z,235
2017-08-25T11:15:33.675Z,245
2017-08-25T11:16:33.996Z,255
2017-08-25T11:17:48.008Z,245
2017-08-25T11:19:48.691Z,235
2017-08-25T11:20:33.824Z,245
2017-08-25T11:22:03.021Z,220
2017-08-25T11:22:34.194Z,215
2017-08-25T11:23:34.206Z,200
2017-08-25T11:24:34.315Z,195
2017-08-25T11:26:34.308Z,170
2017-08-25T11:27:33.990Z,155
2017-08-25T11:28:34.353Z,140
2017-08-25T11:29:48.977Z,130
2017-08-25T11:30:34.413Z,130
2017-08-25T11:31:34.453Z,130
2017-08-25T11:33:49.109Z,130
2017-08-25T11:34:34.518Z,135
2017-08-25T11:35:34.561Z,135
2017-08-25T11:36:34.585Z,130
2017-08-25T11:37:49.231Z,130
2017-08-25T11:38:34.675Z,130
2017-08-25T11:39:48.949Z,140
2017-08-25T11:40:34.391Z,145
2017-08-25T11:41:34.394Z,175
2017-08-25T11:42:34.752Z,200
2017-08-25T11:43:34.788Z,205
2017-08-25T11:44:34.807Z,210
2017-08-25T11:45:49.454Z,205
2017-08-25T11:46:34.543Z,210
2017-08-25T11:47:34.576Z,195
2017-08-25T11:48:49.518Z,155
2017-08-25T11:49:49.540Z,195
2017-08-25T11:51:49.292Z,150
2017-08-25T11:53:35.075Z,185
2017-08-25T11:54:35.079Z,165
2017-08-25T11:55:34.811Z,195
2017-08-25T11:56:49.740Z,200
2017-08-25T11:57:35.175Z,210
2017-08-25T11:58:35.194Z,215
2017-08-25T11:59:49.504Z,220
2017-08-25T12:00:34.940Z,220
2017-08-25T12:01:35.291Z,210
2017-08-25T12:02:49.602Z,215
2017-08-25T12:03:35.018Z,210
2017-08-25T12:04:49.974Z,155
2017-08-25T12:05:49.668Z,150
2017-08-25T12:07:34.829Z,140
2017-08-25T12:08:34.520Z,130
2017-08-25T12:09:34.888Z,125
2017-08-25T12:11:35.245Z,115
2017-08-25T12:12:35.594Z,120
2017-08-25T12:13:35.609Z,125
2017-08-25T12:14:35.643Z,140
2017-08-25T12:15:35.669Z,130
2017-08-25T12:16:35.696Z,135
2017-08-25T12:17:35.744Z,145
2017-08-25T12:18:35.757Z,160
2017-08-25T12:19:35.819Z,205
2017-08-25T12:20:35.495Z,155
2017-08-25T12:21:50.454Z,205
2017-08-25T12:22:35.550Z,205
2017-08-25T12:23:35.584Z,200
2017-08-25T12:24:35.289Z,195
2017-08-25T12:26:35.992Z,185
2017-08-25T12:27:50.611Z,145
2017-08-25T12:28:35.734Z,170
2017-08-25T12:29:50.336Z,145
2017-08-25T12:30:50.052Z,145
2017-08-25T12:32:35.506Z,145
2017-08-25T12:33:36.178Z,145
2017-08-25T12:34:36.194Z,140
2017-08-25T12:35:36.023Z,135
2017-08-25T12:36:50.540Z,130
2017-08-25T12:37:35.960Z,130
2017-08-25T12:38:36.044Z,125
2017-08-25T12:39:36.352Z,125
2017-08-25T12:40:36.370Z,135
2017-08-25T12:42:50.711Z,200
2017-08-25T12:43:36.139Z,200
2017-08-25T12:44:50.774Z,150
2017-08-25T12:45:36.176Z,135
2017-08-25T12:46:51.129Z,125
2017-08-25T12:47:36.543Z,125
2017-08-25T12:48:36.287Z,125
2017-08-25T12:49:36.289Z,175
2017-08-25T12:50:36.340Z,190
2017-08-25T12:51:36.344Z,195
2017-08-25T12:53:05.908Z,190
2017-08-25T12:53:36.399Z,190
2017-08-25T12:54:36.136Z,190
2017-08-25T12:55:36.149Z,185
2017-08-25T12:56:36.180Z,185
2017-08-25T12:57:37.827Z,185
2017-08-25T12:58:38.185Z,185
2017-08-25T12:59:37.594Z,185
2017-08-25T13:00:36.959Z,190
2017-08-25T13:01:52.417Z,190
2017-08-25T13:02:36.964Z,190
2017-08-25T13:03:37.020Z,190
2017-08-25T13:04:37.053Z,180
2017-08-25T13:06:36.782Z,190
2017-08-25T13:07:37.113Z,195
2017-08-25T13:08:51.430Z,200
2017-08-25T13:09:37.157Z,200
2017-08-25T13:10:37.196Z,140
2017-08-25T13:11:36.919Z,135
2017-08-25T13:12:37.230Z,130
2017-08-25T13:13:37.292Z,130
2017-08-25T13:14:37.311Z,125
2017-08-25T13:15:37.349Z,120
2017-08-25T13:16:37.343Z,120
2017-08-25T13:17:51.657Z,120
2017-08-25T13:18:52.029Z,125
2017-08-25T13:20:37.493Z,135
2017-08-25T13:21:52.104Z,205
2017-08-25T13:22:37.556Z,140
2017-08-25T13:24:52.185Z,145
2017-08-25T13:25:37.607Z,140
2017-08-25T13:26:37.632Z,135
2017-08-25T13:28:06.872Z,130
2017-08-25T13:28:37.391Z,130
2017-08-25T13:29:37.402Z,125
2017-08-25T13:30:37.135Z,125
2017-08-25T13:31:37.750Z,120
2017-08-25T13:32:37.482Z,120
2017-08-25T13:33:37.513Z,120
2017-08-25T13:34:37.870Z,120
2017-08-25T13:35:37.897Z,120
2017-08-25T13:36:37.916Z,120
2017-08-25T13:37:37.608Z,120
2017-08-25T13:38:37.983Z,115
2017-08-25T13:40:06.879Z,110
2017-08-25T13:40:38.035Z,110
2017-08-25T13:41:38.027Z,110
2017-08-25T13:42:52.678Z,115
2017-08-25T13:43:52.699Z,120
2017-08-25T13:44:38.122Z,115
2017-08-25T13:45:38.159Z,170
2017-08-25T13:48:07.409Z,160
2017-08-25T13:48:37.619Z,150
2017-08-25T13:50:07.141Z,130
2017-08-25T13:50:37.679Z,130
2017-08-25T13:51:37.999Z,140
2017-08-25T13:52:38.054Z,170
2017-08-25T13:53:38.361Z,180
2017-08-25T13:54:38.083Z,195
2017-08-25T13:55:52.722Z,195
2017-08-25T13:56:38.139Z,165
2017-08-25T13:57:38.169Z,130
2017-08-25T13:58:38.531Z,120
2017-08-25T13:59:52.811Z,115
2017-08-25T14:00:38.571Z,110
2017-08-25T14:01:38.567Z,105
2017-08-25T14:02:53.238Z,110
2017-08-25T14:03:38.652Z,105
2017-08-25T14:04:38.714Z,170
2017-08-25T14:05:38.368Z,165
2017-08-25T14:07:38.418Z,160
2017-08-25T14:08:53.390Z,140
2017-08-25T14:09:38.800Z,150
2017-08-25T14:10:38.524Z,95
2017-08-25T14:12:08.359Z,150
2017-08-25T14:12:38.889Z,155
2017-08-25T14:13:53.520Z,100
2017-08-25T14:14:53.534Z,135
2017-08-25T14:15:38.664Z,155
2017-08-25T14:16:39.003Z,150
2017-08-25T14:17:39.034Z,155
2017-08-25T14:18:38.414Z,155
2017-08-25T14:19:39.086Z,155
2017-08-25T14:20:39.123Z,155
2017-08-25T14:22:39.175Z,155
2017-08-25T14:23:39.160Z,155
2017-08-25T14:24:53.812Z,150
2017-08-25T14:25:39.260Z,155
2017-08-25T14:26:53.866Z,155
2017-08-25T14:27:53.899Z,155
2017-08-25T14:28:39.006Z,150
2017-08-25T14:29:39.350Z,150
2017-08-25T14:30:39.054Z,145
2017-08-25T14:31:39.420Z,145
2017-08-25T14:32:39.416Z,140
2017-08-25T14:33:54.077Z,145
2017-08-25T14:34:39.165Z,145
2017-08-25T14:35:39.204Z,145
2017-08-25T14:36:39.550Z,145
2017-08-25T14:37:39.565Z,145
2017-08-25T14:38:39.575Z,145
2017-08-25T14:40:53.942Z,140
2017-08-25T14:41:39.692Z,145
2017-08-25T14:42:39.707Z,145
2017-08-25T14:43:54.338Z,145
2017-08-25T14:44:39.448Z,110
2017-08-25T14:45:54.052Z,90
2017-08-25T14:46:54.426Z,95
2017-08-25T14:47:39.221Z,145
2017-08-25T14:48:39.853Z,145
2017-08-25T14:49:39.897Z,145
2017-08-25T14:50:39.930Z,145
2017-08-25T14:51:39.982Z,145
2017-08-25T14:52:54.250Z,145
2017-08-25T14:53:40.024Z,150
2017-08-25T14:54:40.021Z,110
2017-08-25T14:55:40.064Z,115
2017-08-25T14:56:40.127Z,145
2017-08-25T14:57:54.729Z,145
2017-08-25T14:58:39.199Z,145